createdAt,value
2023-05-12T00:02:21.355Z,50.00
2023-05-12T00:05:07.309Z,49.89
2023-05-12T00:07:52.746Z,49.98
2023-05-12T00:10:38.214Z,49.85
2023-05-12T00:13:24.141Z,49.76
2023-05-12T00:16:09.935Z,49.76
2023-05-12T00:18:55.473Z,49.73
2023-05-12T00:21:41.577Z,49.65
2023-05-12T00:24:27.213Z,49.76
2023-05-12T00:27:13.960Z,49.58
2023-05-12T00:29:59.653Z,49.70
2023-05-12T00:32:44.911Z,49.95
2023-05-12T00:35:30.209Z,49.64
2023-05-12T00:38:15.654Z,49.67
2023-05-12T00:41:01.551Z,49.47
2023-05-12T00:43:46.929Z,49.57
2023-05-12T00:46:32.559Z,49.66
2023-05-12T00:49:18.461Z,49.50
2023-05-12T00:52:04.672Z,49.57
2023-05-12T00:54:49.971Z,49.53
2023-05-12T00:57:35.701Z,49.52
2023-05-12T01:00:22.518Z,49.55
2023-05-12T01:03:08.920Z,49.44
2023-05-12T01:06:13.452Z,49.34
2023-05-12T01:08:59.576Z,49.37
2023-05-12T01:11:44.850Z,49.38
2023-05-12T01:14:30.657Z,49.30
2023-05-12T01:17:23.906Z,49.42
2023-05-12T01:20:12.487Z,48.78
2023-05-12T01:22:58.478Z,48.73
2023-05-12T01:25:50.172Z,48.67
2023-05-12T01:28:37.108Z,48.60
2023-05-12T01:31:24.401Z,48.52
2023-05-12T01:34:16.017Z,48.37
2023-05-12T01:37:01.770Z,48.49
2023-05-12T01:39:48.015Z,48.47
2023-05-12T01:42:42.419Z,48.44
2023-05-12T01:45:29.452Z,48.46
2023-05-12T01:48:15.106Z,48.39
2023-05-12T01:51:01.880Z,48.27
2023-05-12T01:53:47.235Z,48.27
2023-05-12T01:56:32.325Z,48.30
2023-05-12T01:59:17.675Z,48.32
2023-05-12T02:02:03.876Z,48.31
2023-05-12T02:04:50.082Z,48.16
2023-05-12T02:07:35.670Z,48.21
2023-05-12T02:10:21.017Z,48.48
2023-05-12T02:13:07.058Z,48.20
2023-05-12T02:15:53.154Z,48.14
2023-05-12T02:18:38.761Z,48.02
2023-05-12T02:21:25.865Z,47.77
2023-05-12T02:24:14.686Z,47.82
2023-05-12T02:27:00.478Z,47.70
2023-05-12T02:29:45.846Z,47.60
2023-05-12T02:32:30.922Z,47.68
2023-05-12T02:35:16.327Z,47.66
2023-05-12T02:38:01.583Z,48.04
2023-05-12T02:40:47.723Z,47.57
2023-05-12T02:43:33.727Z,47.64
2023-05-12T02:46:19.115Z,47.55
2023-05-12T02:49:04.495Z,47.83
2023-05-12T02:51:50.042Z,48.08
2023-05-12T02:54:35.287Z,48.43
2023-05-12T02:57:20.634Z,48.08
2023-05-12T03:00:06.793Z,48.24
2023-05-12T03:02:55.142Z,48.47
2023-05-12T03:05:40.453Z,48.45
2023-05-12T03:08:25.675Z,48.39
2023-05-12T03:11:10.913Z,48.07
2023-05-12T03:13:56.188Z,47.97
2023-05-12T03:16:41.357Z,47.92
2023-05-12T03:19:29.984Z,48.46
2023-05-12T03:22:15.459Z,48.59
2023-05-12T03:25:00.998Z,48.64
2023-05-12T03:27:47.654Z,48.58
2023-05-12T03:30:33.285Z,48.32
2023-05-12T03:33:18.877Z,47.85
2023-05-12T03:36:04.464Z,47.76
2023-05-12T03:38:49.960Z,47.58
2023-05-12T03:41:36.285Z,47.56
2023-05-12T03:47:29.220Z,47.82
2023-05-12T03:50:14.891Z,48.72
2023-05-12T03:53:01.223Z,47.88
2023-05-12T03:55:46.573Z,47.46
2023-05-12T03:58:31.951Z,47.71
2023-05-12T04:01:17.610Z,48.51
2023-05-12T04:04:03.675Z,48.21
2023-05-12T04:06:49.270Z,48.01
2023-05-12T04:09:34.733Z,47.25
2023-05-12T04:12:20.447Z,46.93
2023-05-12T04:15:06.818Z,47.06
2023-05-12T04:17:52.517Z,46.89
2023-05-12T04:20:38.088Z,47.26
2023-05-12T04:23:23.883Z,47.10
2023-05-12T04:26:09.455Z,48.25
2023-05-12T04:28:54.963Z,48.37
2023-05-12T04:31:40.849Z,48.63
2023-05-12T04:34:27.222Z,49.29
2023-05-12T04:37:13.705Z,49.46
2023-05-12T04:40:00.150Z,49.16
2023-05-12T04:42:46.565Z,49.10
2023-05-12T04:45:33.675Z,49.44
2023-05-12T04:48:19.324Z,49.28
2023-05-12T04:51:04.721Z,48.89
2023-05-12T04:53:50.027Z,48.26
2023-05-12T04:56:36.278Z,48.68
2023-05-12T04:59:21.957Z,49.01
2023-05-12T05:02:12.060Z,48.90
2023-05-12T05:04:57.626Z,48.16
2023-05-12T05:07:44.009Z,48.90
2023-05-12T05:10:30.253Z,48.34
2023-05-12T05:13:16.585Z,48.33
2023-05-12T05:16:02.292Z,48.95
2023-05-12T05:18:48.645Z,48.98
2023-05-12T05:21:34.640Z,48.85
2023-05-12T05:24:20.252Z,48.95
2023-05-12T05:27:05.658Z,49.01
2023-05-12T05:29:51.152Z,49.03
2023-05-12T05:32:37.397Z,49.02
2023-05-12T05:35:22.929Z,49.32
2023-05-12T05:38:10.784Z,49.22
2023-05-12T05:40:56.589Z,49.31
2023-05-12T05:43:43.946Z,49.32
2023-05-12T05:46:29.803Z,49.24
2023-05-12T05:49:15.059Z,49.33
2023-05-12T05:52:00.449Z,49.31
2023-05-12T05:54:46.460Z,49.27
2023-05-12T05:57:34.485Z,49.33
2023-05-12T06:00:21.367Z,49.33
2023-05-12T06:03:10.045Z,49.40
2023-05-12T06:05:55.127Z,49.37
2023-05-12T06:08:40.794Z,49.39
2023-05-12T06:11:25.954Z,49.15
2023-05-12T06:14:11.757Z,49.45
2023-05-12T06:16:57.397Z,49.51
2023-05-12T06:19:44.043Z,49.63
2023-05-12T06:22:29.330Z,49.62
2023-05-12T06:25:14.697Z,49.62
2023-05-12T06:28:00.045Z,49.58
2023-05-12T06:30:46.397Z,49.35
2023-05-12T06:33:31.520Z,49.29
2023-05-12T06:36:16.938Z,49.56
2023-05-12T06:39:02.120Z,49.65
2023-05-12T06:41:47.390Z,49.29
2023-05-12T06:44:41.743Z,49.49
2023-05-12T06:47:27.969Z,49.63
2023-05-12T06:50:17.129Z,49.55
2023-05-12T06:53:02.645Z,49.50
2023-05-12T06:55:48.497Z,49.45
2023-05-12T06:58:34.393Z,49.54
2023-05-12T07:01:20.016Z,49.54
2023-05-12T07:04:05.326Z,49.49
2023-05-12T07:06:50.725Z,49.45
2023-05-12T07:09:36.167Z,49.57
2023-05-12T07:12:21.522Z,49.54
2023-05-12T07:15:08.451Z,49.47
2023-05-12T07:17:55.457Z,49.50
2023-05-12T07:20:41.174Z,49.47
2023-05-12T07:23:26.778Z,49.41
2023-05-12T07:26:12.474Z,49.36
2023-05-12T07:29:00.568Z,49.05
2023-05-12T07:31:46.450Z,47.96
2023-05-12T07:34:33.850Z,48.28
2023-05-12T07:37:19.391Z,47.60
2023-05-12T07:40:05.200Z,47.43
2023-05-12T07:42:50.966Z,47.32
2023-05-12T07:45:36.624Z,47.33
2023-05-12T07:48:22.442Z,46.77
2023-05-12T07:51:08.842Z,47.09
2023-05-12T07:53:55.323Z,46.98
2023-05-12T07:56:40.753Z,46.87
2023-05-12T07:59:26.052Z,46.97
2023-05-12T08:02:11.500Z,46.33
2023-05-12T08:04:56.705Z,45.90
2023-05-12T08:07:43.921Z,44.92
2023-05-12T08:10:30.003Z,44.79
2023-05-12T08:13:15.457Z,44.71
2023-05-12T08:16:00.785Z,44.91
2023-05-12T08:18:46.017Z,45.06
2023-05-12T08:21:31.745Z,44.95
2023-05-12T08:24:17.060Z,45.18
2023-05-12T08:27:02.221Z,45.10
2023-05-12T08:29:47.573Z,45.02
2023-05-12T08:32:33.041Z,44.99
2023-05-12T08:35:18.925Z,44.96
2023-05-12T08:38:04.741Z,44.83
2023-05-12T08:41:05.086Z,44.58
2023-05-12T08:43:52.116Z,44.38
2023-05-12T08:46:38.315Z,44.21
2023-05-12T08:49:26.742Z,44.85
2023-05-12T08:52:13.502Z,44.55
2023-05-12T08:55:00.090Z,44.13
2023-05-12T08:57:48.426Z,44.11
2023-05-12T09:00:36.136Z,43.94
2023-05-12T09:03:22.430Z,44.15
2023-05-12T09:06:08.977Z,43.98
2023-05-12T09:08:55.068Z,43.81
2023-05-12T09:11:42.684Z,43.51
2023-05-12T09:14:31.152Z,43.01
2023-05-12T09:17:16.671Z,42.74
2023-05-12T09:20:03.448Z,42.88
2023-05-12T09:22:48.683Z,42.63
2023-05-12T09:25:33.947Z,42.48
2023-05-12T09:28:19.230Z,42.46
2023-05-12T09:31:22.589Z,41.96
2023-05-12T09:34:09.134Z,41.19
2023-05-12T09:37:03.617Z,41.81
2023-05-12T09:39:59.709Z,41.38
2023-05-12T09:42:46.587Z,41.14
2023-05-12T09:45:39.070Z,40.80
2023-05-12T09:48:26.889Z,41.29
2023-05-12T09:51:17.645Z,41.57
2023-05-12T09:54:03.571Z,41.30
2023-05-12T09:56:50.838Z,41.71
2023-05-12T09:59:38.497Z,41.81
2023-05-12T10:02:25.609Z,42.29
2023-05-12T10:05:22.447Z,42.30
2023-05-12T10:08:08.907Z,42.38
2023-05-12T10:10:58.142Z,41.99
2023-05-12T10:13:43.743Z,42.06
2023-05-12T10:16:29.895Z,41.82
2023-05-12T10:19:15.673Z,41.39
2023-05-12T10:22:01.859Z,41.32
2023-05-12T10:24:48.789Z,40.97
2023-05-12T10:27:34.826Z,40.90
2023-05-12T10:30:21.094Z,41.07
2023-05-12T10:33:10.040Z,41.31
2023-05-12T10:35:55.863Z,41.63
2023-05-12T10:38:41.252Z,41.74
2023-05-12T10:41:35.194Z,41.35
2023-05-12T10:44:28.025Z,41.14
2023-05-12T10:47:17.336Z,41.46
2023-05-12T10:50:03.213Z,41.60
2023-05-12T10:52:56.006Z,41.76
2023-05-12T10:55:47.933Z,41.99
2023-05-12T10:58:34.335Z,42.02
2023-05-12T11:01:25.417Z,42.27
2023-05-12T11:04:17.089Z,42.05
2023-05-12T11:07:06.020Z,41.56
2023-05-12T11:09:58.295Z,41.31
2023-05-12T11:12:46.478Z,40.70
2023-05-12T11:15:31.651Z,40.92
2023-05-12T11:18:21.783Z,40.91
2023-05-12T11:21:12.213Z,41.27
2023-05-12T11:23:59.166Z,41.34
2023-05-12T11:26:44.941Z,40.58
2023-05-12T11:29:31.784Z,40.35
2023-05-12T11:32:17.616Z,40.29
2023-05-12T11:35:14.782Z,39.35
2023-05-12T11:38:00.559Z,40.33
2023-05-12T11:40:47.557Z,39.84
2023-05-12T11:43:32.851Z,40.90
2023-05-12T11:46:30.916Z,40.88
2023-05-12T11:49:16.217Z,41.59
2023-05-12T11:52:02.837Z,41.78
2023-05-12T11:54:52.093Z,42.03
2023-05-12T11:57:37.825Z,42.06
2023-05-12T12:00:31.164Z,42.04
2023-05-12T12:03:16.727Z,42.41
2023-05-12T12:06:03.704Z,42.27
2023-05-12T12:08:56.835Z,42.30
2023-05-12T12:11:42.388Z,42.42
2023-05-12T12:14:28.064Z,42.55
2023-05-12T12:17:13.733Z,42.52
2023-05-12T12:19:59.634Z,42.52
2023-05-12T12:22:45.523Z,42.65
2023-05-12T12:25:31.204Z,42.62
2023-05-12T12:28:16.967Z,42.79
2023-05-12T12:31:03.194Z,42.77
2023-05-12T12:33:48.810Z,43.00
2023-05-12T12:36:34.564Z,43.10
2023-05-12T12:39:20.155Z,43.46
2023-05-12T12:42:05.758Z,43.23
2023-05-12T12:44:52.066Z,43.00
2023-05-12T12:47:39.055Z,43.25
2023-05-12T12:50:25.852Z,43.26
2023-05-12T12:53:12.885Z,43.25
2023-05-12T12:55:58.569Z,43.17
2023-05-12T12:58:44.056Z,43.08
2023-05-12T13:01:29.685Z,43.21
2023-05-12T13:04:15.329Z,43.05
2023-05-12T13:07:00.580Z,43.21
2023-05-12T13:09:46.285Z,42.79
2023-05-12T13:12:32.564Z,41.79
2023-05-12T13:15:19.497Z,42.23
2023-05-12T13:18:05.514Z,42.81
2023-05-12T13:20:51.548Z,42.99
2023-05-12T13:23:37.379Z,43.13
2023-05-12T13:26:23.566Z,43.33
2023-05-12T13:29:08.869Z,43.34
2023-05-12T13:31:54.682Z,43.54
2023-05-12T13:34:40.388Z,43.82
2023-05-12T13:37:27.366Z,43.50
2023-05-12T13:40:13.270Z,43.48
2023-05-12T13:42:59.468Z,43.54
2023-05-12T13:45:44.807Z,43.57
2023-05-12T13:48:29.983Z,43.41
2023-05-12T13:51:15.502Z,43.50
2023-05-12T13:54:01.028Z,43.38
2023-05-12T13:56:46.264Z,43.45
2023-05-12T13:59:32.027Z,43.52
2023-05-12T14:02:18.141Z,43.44
2023-05-12T14:05:04.038Z,43.27
2023-05-12T14:07:49.684Z,43.48
2023-05-12T14:10:35.476Z,43.33
2023-05-12T14:13:20.819Z,42.25
2023-05-12T14:16:06.590Z,42.97
2023-05-12T14:18:52.320Z,43.58
2023-05-12T14:21:40.999Z,43.81
2023-05-12T14:24:27.028Z,43.49
2023-05-12T14:27:12.158Z,43.69
2023-05-12T14:29:57.732Z,43.86
2023-05-12T14:32:46.574Z,44.02
2023-05-12T14:35:32.445Z,43.78
2023-05-12T14:38:18.228Z,44.01
2023-05-12T14:41:04.064Z,43.95
2023-05-12T14:43:50.539Z,44.03
2023-05-12T14:46:37.643Z,44.06
2023-05-12T14:49:23.450Z,43.63
2023-05-12T14:52:08.968Z,42.88
2023-05-12T14:54:54.761Z,43.07
2023-05-12T14:57:41.457Z,42.91
2023-05-12T15:00:27.113Z,43.05
2023-05-12T15:03:13.556Z,43.32
2023-05-12T15:08:48.927Z,43.41
2023-05-12T15:11:34.614Z,43.84
2023-05-12T15:14:20.100Z,44.09
2023-05-12T15:17:05.596Z,44.34
2023-05-12T15:19:51.256Z,44.88
2023-05-12T15:22:37.401Z,45.03
2023-05-12T15:25:23.228Z,45.50
2023-05-12T15:28:08.872Z,44.65
2023-05-12T15:30:58.161Z,43.56
2023-05-12T15:33:44.119Z,43.45
2023-05-12T15:36:30.985Z,44.43
2023-05-12T15:39:17.054Z,45.14
2023-05-12T15:42:03.997Z,45.62
2023-05-12T15:44:51.098Z,45.98
2023-05-12T15:47:36.706Z,45.77
2023-05-12T15:50:22.980Z,45.87
2023-05-12T15:53:09.976Z,45.77
2023-05-12T15:56:04.036Z,45.97
2023-05-12T15:58:49.428Z,46.13
2023-05-12T16:01:34.844Z,46.23
2023-05-12T16:04:20.194Z,46.13
2023-05-12T16:07:05.603Z,46.45
2023-05-12T16:09:51.016Z,46.61
2023-05-12T16:12:37.334Z,46.62
2023-05-12T16:15:22.861Z,46.36
2023-05-12T16:18:11.117Z,46.30
2023-05-12T16:20:56.928Z,46.33
2023-05-12T16:23:42.726Z,46.14
2023-05-12T16:26:27.851Z,46.12
2023-05-12T16:29:13.785Z,46.32
2023-05-12T16:31:59.365Z,46.26
2023-05-12T16:34:45.115Z,46.30
2023-05-12T16:37:30.666Z,46.36
2023-05-12T16:40:16.036Z,46.53
2023-05-12T16:43:01.298Z,46.65
2023-05-12T16:45:46.690Z,46.74
2023-05-12T16:48:34.858Z,46.64
2023-05-12T16:51:20.455Z,46.56
2023-05-12T16:54:06.256Z,46.67
2023-05-12T16:56:51.548Z,46.69
2023-05-12T16:59:38.460Z,46.56
2023-05-12T17:02:23.938Z,46.64
2023-05-12T17:05:10.058Z,46.65
2023-05-12T17:07:55.644Z,46.76
2023-05-12T17:10:40.957Z,46.95
2023-05-12T17:13:26.319Z,47.30
2023-05-12T17:16:11.993Z,47.24
2023-05-12T17:21:48.219Z,47.94
2023-05-12T17:24:33.521Z,48.38
2023-05-12T17:27:19.138Z,47.94
2023-05-12T17:30:05.180Z,48.16
2023-05-12T17:32:50.694Z,48.33
2023-05-12T17:35:36.552Z,48.62
2023-05-12T17:38:22.010Z,49.35
2023-05-12T17:41:07.521Z,48.85
2023-05-12T17:43:53.756Z,48.55
2023-05-12T17:46:39.507Z,48.67
2023-05-12T17:49:24.834Z,48.69
2023-05-12T17:52:10.252Z,48.05
2023-05-12T17:54:58.476Z,48.40
2023-05-12T17:57:44.127Z,48.69
2023-05-12T18:00:29.389Z,49.04
2023-05-12T18:03:15.315Z,49.34
2023-05-12T18:06:00.761Z,49.90
2023-05-12T18:08:46.797Z,49.54
2023-05-12T18:11:34.408Z,49.83
2023-05-12T18:14:20.406Z,50.14
2023-05-12T18:17:06.435Z,52.27
2023-05-12T18:19:52.054Z,52.67
2023-05-12T18:22:37.893Z,52.36
2023-05-12T18:25:23.573Z,52.11
2023-05-12T18:28:09.789Z,52.30
2023-05-12T18:30:58.068Z,52.00
2023-05-12T18:33:49.873Z,51.82
2023-05-12T18:36:35.386Z,51.81
2023-05-12T18:39:20.997Z,51.49
2023-05-12T18:42:06.476Z,51.64
2023-05-12T18:44:52.401Z,51.89
2023-05-12T18:47:38.088Z,51.95
2023-05-12T18:50:23.684Z,51.33
2023-05-12T18:53:09.367Z,51.34
2023-05-12T18:55:54.680Z,51.13
2023-05-12T18:58:39.984Z,50.98
2023-05-12T19:01:25.281Z,50.78
2023-05-12T19:04:10.767Z,50.73
2023-05-12T19:06:56.225Z,50.51
2023-05-12T19:09:42.435Z,50.50
2023-05-12T19:12:27.688Z,50.33
2023-05-12T19:15:13.060Z,50.54
2023-05-12T19:17:58.520Z,50.36
2023-05-12T19:20:43.799Z,50.54
2023-05-12T19:23:30.690Z,50.40
2023-05-12T19:26:16.153Z,50.43
2023-05-12T19:29:02.115Z,50.43
2023-05-12T19:31:47.718Z,50.26
2023-05-12T19:34:32.905Z,50.35
2023-05-12T19:37:19.358Z,50.41
2023-05-12T19:40:05.418Z,50.24
2023-05-12T19:42:52.987Z,50.26
2023-05-12T19:45:39.178Z,50.27
2023-05-12T19:48:24.851Z,50.30
2023-05-12T19:51:10.604Z,50.34
2023-05-12T19:53:56.055Z,50.54
2023-05-12T19:56:41.461Z,50.44
2023-05-12T19:59:26.878Z,50.32
2023-05-12T20:02:14.209Z,50.52
2023-05-12T20:05:00.618Z,50.45
2023-05-12T20:07:45.931Z,50.27
2023-05-12T20:10:31.328Z,50.40
2023-05-12T20:13:16.498Z,50.21
2023-05-12T20:16:01.987Z,50.14
2023-05-12T20:18:47.538Z,50.20
2023-05-12T20:21:32.786Z,50.13
2023-05-12T20:24:18.248Z,50.17
2023-05-12T20:27:03.629Z,50.37
2023-05-12T20:29:49.505Z,50.00
2023-05-12T20:32:34.817Z,49.97
2023-05-12T20:35:20.726Z,49.94
2023-05-12T20:38:07.061Z,49.89
2023-05-12T20:40:52.334Z,49.73
2023-05-12T20:43:37.694Z,49.79
2023-05-12T20:46:23.144Z,49.65
2023-05-12T20:49:09.048Z,49.66
2023-05-12T20:51:54.354Z,49.58
2023-05-12T20:54:39.570Z,49.36
2023-05-12T20:57:26.146Z,49.38
2023-05-12T21:00:12.280Z,49.29
2023-05-12T21:02:58.772Z,49.41
2023-05-12T21:05:47.759Z,49.35
2023-05-12T21:08:33.263Z,49.29
2023-05-12T21:11:19.001Z,49.13
2023-05-12T21:14:05.049Z,49.07
2023-05-12T21:16:50.377Z,49.07
2023-05-12T21:19:40.706Z,49.00
2023-05-12T21:22:26.771Z,48.93
2023-05-12T21:25:12.116Z,48.96
2023-05-12T21:27:57.259Z,48.81
2023-05-12T21:30:42.723Z,48.72
2023-05-12T21:33:28.135Z,48.74
2023-05-12T21:36:13.603Z,48.62
2023-05-12T21:38:58.879Z,48.73
2023-05-12T21:41:44.109Z,48.69
2023-05-12T21:44:29.964Z,48.66
2023-05-12T21:47:15.474Z,48.36
2023-05-12T21:50:01.015Z,48.37
2023-05-12T21:52:46.300Z,48.46
2023-05-12T21:55:31.603Z,48.28
2023-05-12T21:58:16.940Z,48.12
2023-05-12T22:01:02.275Z,48.15
2023-05-12T22:03:47.556Z,48.12
2023-05-12T22:06:32.828Z,48.05
2023-05-12T22:09:18.488Z,48.27
2023-05-12T22:12:04.859Z,48.03
2023-05-12T22:14:50.176Z,47.82
2023-05-12T22:17:35.902Z,47.89
2023-05-12T22:20:23.218Z,47.71
2023-05-12T22:23:08.832Z,47.72
2023-05-12T22:25:54.008Z,47.75
2023-05-12T22:28:39.338Z,47.65
2023-05-12T22:31:25.155Z,47.62
2023-05-12T22:34:10.585Z,47.60
2023-05-12T22:36:55.928Z,47.56
2023-05-12T22:39:41.302Z,47.34
2023-05-12T22:42:26.606Z,47.42
2023-05-12T22:45:12.074Z,47.42
2023-05-12T22:47:57.336Z,47.34
2023-05-12T22:50:42.593Z,47.30
2023-05-12T22:53:27.837Z,47.20
2023-05-12T22:56:13.000Z,47.20
2023-05-12T22:58:58.298Z,47.16
2023-05-12T23:01:43.881Z,47.19
2023-05-12T23:04:29.448Z,47.13
2023-05-12T23:07:14.549Z,47.21
2023-05-12T23:09:59.875Z,47.18
2023-05-12T23:12:45.159Z,47.02
2023-05-12T23:15:30.519Z,47.11
2023-05-12T23:18:15.935Z,47.06
2023-05-12T23:21:01.287Z,46.88
2023-05-12T23:23:46.367Z,46.98
2023-05-12T23:26:31.914Z,46.77
2023-05-12T23:29:17.476Z,46.70
2023-05-12T23:32:03.494Z,46.76
2023-05-12T23:34:49.698Z,46.78
2023-05-12T23:37:35.013Z,46.63
2023-05-12T23:40:20.757Z,46.64
2023-05-12T23:43:06.746Z,46.57
2023-05-12T23:45:52.195Z,46.61
2023-05-12T23:48:37.389Z,46.61
2023-05-12T23:51:23.713Z,46.54
2023-05-12T23:54:09.193Z,46.34
2023-05-12T23:56:54.386Z,46.35
2023-05-12T23:59:39.685Z,46.26
